sensor_id;sensor_type;location;lat;lon;timestamp;P1;durP1;ratioP1;P2;durP2;ratioP2
41643;SDS011;44236;48.098;11.582;2023-04-06T00:02:11;2.75;;;1.67;;
41643;SDS011;44236;48.098;11.582;2023-04-06T00:04:37;2.40;;;1.60;;
41643;SDS011;44236;48.098;11.582;2023-04-06T00:07:02;2.58;;;1.48;;
41643;SDS011;44236;48.098;11.582;2023-04-06T00:09:28;3.15;;;1.48;;
41643;SDS011;44236;48.098;11.582;2023-04-06T00:11:54;2.97;;;1.55;;
41643;SDS011;44236;48.098;11.582;2023-04-06T00:14:19;2.65;;;1.48;;
41643;SDS011;44236;48.098;11.582;2023-04-06T00:16:45;3.60;;;1.70;;
41643;SDS011;44236;48.098;11.582;2023-04-06T00:19:11;4.00;;;1.70;;
41643;SDS011;44236;48.098;11.582;2023-04-06T00:21:36;2.08;;;1.25;;
41643;SDS011;44236;48.098;11.582;2023-04-06T00:24:02;2.55;;;1.20;;
41643;SDS011;44236;48.098;11.582;2023-04-06T00:26:28;2.88;;;1.35;;
41643;SDS011;44236;48.098;11.582;2023-04-06T00:28:54;2.45;;;1.33;;
41643;SDS011;44236;48.098;11.582;2023-04-06T00:31:20;3.85;;;1.65;;
41643;SDS011;44236;48.098;11.582;2023-04-06T00:33:49;3.92;;;1.38;;
41643;SDS011;44236;48.098;11.582;2023-04-06T00:36:14;3.15;;;1.40;;
41643;SDS011;44236;48.098;11.582;2023-04-06T00:38:40;2.58;;;1.20;;
41643;SDS011;44236;48.098;11.582;2023-04-06T00:41:06;3.85;;;1.88;;
41643;SDS011;44236;48.098;11.582;2023-04-06T00:43:31;3.58;;;1.48;;
41643;SDS011;44236;48.098;11.582;2023-04-06T00:45:57;5.30;;;1.33;;
41643;SDS011;44236;48.098;11.582;2023-04-06T00:48:23;2.20;;;1.30;;
41643;SDS011;44236;48.098;11.582;2023-04-06T00:50:48;3.25;;;1.30;;
41643;SDS011;44236;48.098;11.582;2023-04-06T00:53:14;2.70;;;1.75;;
41643;SDS011;44236;48.098;11.582;2023-04-06T00:55:40;2.95;;;1.50;;
41643;SDS011;44236;48.098;11.582;2023-04-06T00:58:05;3.88;;;1.85;;
41643;SDS011;44236;48.098;11.582;2023-04-06T01:00:32;3.67;;;1.38;;
41643;SDS011;44236;48.098;11.582;2023-04-06T01:02:58;1.95;;;1.25;;
41643;SDS011;44236;48.098;11.582;2023-04-06T01:05:23;2.85;;;1.58;;
41643;SDS011;44236;48.098;11.582;2023-04-06T01:07:49;2.15;;;1.30;;
41643;SDS011;44236;48.098;11.582;2023-04-06T01:10:25;2.83;;;1.50;;
41643;SDS011;44236;48.098;11.582;2023-04-06T01:12:52;4.72;;;1.70;;
41643;SDS011;44236;48.098;11.582;2023-04-06T01:15:17;3.83;;;1.48;;
41643;SDS011;44236;48.098;11.582;2023-04-06T01:17:44;2.17;;;1.45;;
41643;SDS011;44236;48.098;11.582;2023-04-06T01:20:10;2.05;;;1.05;;
41643;SDS011;44236;48.098;11.582;2023-04-06T01:22:36;2.40;;;1.27;;
41643;SDS011;44236;48.098;11.582;2023-04-06T01:25:01;2.67;;;1.40;;
41643;SDS011;44236;48.098;11.582;2023-04-06T01:27:27;3.60;;;1.60;;
41643;SDS011;44236;48.098;11.582;2023-04-06T01:29:54;1.85;;;1.05;;
41643;SDS011;44236;48.098;11.582;2023-04-06T01:32:20;2.72;;;1.23;;
41643;SDS011;44236;48.098;11.582;2023-04-06T01:34:46;1.92;;;1.20;;
41643;SDS011;44236;48.098;11.582;2023-04-06T01:37:15;2.97;;;1.35;;
41643;SDS011;44236;48.098;11.582;2023-04-06T01:39:42;2.55;;;1.20;;
41643;SDS011;44236;48.098;11.582;2023-04-06T01:42:08;2.67;;;1.30;;
41643;SDS011;44236;48.098;11.582;2023-04-06T01:44:34;2.45;;;1.30;;
41643;SDS011;44236;48.098;11.582;2023-04-06T01:46:59;3.72;;;1.35;;
41643;SDS011;44236;48.098;11.582;2023-04-06T01:49:25;2.65;;;1.60;;
41643;SDS011;44236;48.098;11.582;2023-04-06T01:51:51;2.25;;;1.20;;
41643;SDS011;44236;48.098;11.582;2023-04-06T01:54:17;3.38;;;1.50;;
41643;SDS011;44236;48.098;11.582;2023-04-06T01:56:43;2.95;;;1.23;;
41643;SDS011;44236;48.098;11.582;2023-04-06T01:59:08;1.58;;;0.93;;
41643;SDS011;44236;48.098;11.582;2023-04-06T02:01:34;2.00;;;1.35;;
41643;SDS011;44236;48.098;11.582;2023-04-06T02:04:02;2.63;;;1.45;;
41643;SDS011;44236;48.098;11.582;2023-04-06T02:06:28;2.28;;;1.50;;
41643;SDS011;44236;48.098;11.582;2023-04-06T02:08:55;2.78;;;1.40;;
41643;SDS011;44236;48.098;11.582;2023-04-06T02:11:20;2.80;;;1.15;;
41643;SDS011;44236;48.098;11.582;2023-04-06T02:13:46;2.88;;;1.35;;
41643;SDS011;44236;48.098;11.582;2023-04-06T02:16:12;5.53;;;1.30;;
41643;SDS011;44236;48.098;11.582;2023-04-06T02:18:37;2.38;;;1.17;;
41643;SDS011;44236;48.098;11.582;2023-04-06T02:21:09;1.83;;;1.08;;
41643;SDS011;44236;48.098;11.582;2023-04-06T02:23:35;2.28;;;1.15;;
41643;SDS011;44236;48.098;11.582;2023-04-06T02:26:01;2.33;;;1.27;;
41643;SDS011;44236;48.098;11.582;2023-04-06T02:28:26;3.35;;;1.60;;
41643;SDS011;44236;48.098;11.582;2023-04-06T02:30:52;4.70;;;1.50;;
41643;SDS011;44236;48.098;11.582;2023-04-06T02:33:18;2.92;;;1.30;;
41643;SDS011;44236;48.098;11.582;2023-04-06T02:35:44;2.22;;;1.30;;
41643;SDS011;44236;48.098;11.582;2023-04-06T02:38:10;3.00;;;1.48;;
41643;SDS011;44236;48.098;11.582;2023-04-06T02:40:36;4.88;;;1.30;;
41643;SDS011;44236;48.098;11.582;2023-04-06T02:43:02;2.53;;;1.30;;
41643;SDS011;44236;48.098;11.582;2023-04-06T02:45:27;3.97;;;1.48;;
41643;SDS011;44236;48.098;11.582;2023-04-06T02:47:53;2.63;;;1.30;;
41643;SDS011;44236;48.098;11.582;2023-04-06T02:50:18;3.85;;;1.13;;
41643;SDS011;44236;48.098;11.582;2023-04-06T02:52:44;2.83;;;1.48;;
41643;SDS011;44236;48.098;11.582;2023-04-06T02:55:10;2.47;;;1.20;;
41643;SDS011;44236;48.098;11.582;2023-04-06T02:57:36;1.65;;;1.15;;
41643;SDS011;44236;48.098;11.582;2023-04-06T03:00:01;2.63;;;1.20;;
41643;SDS011;44236;48.098;11.582;2023-04-06T03:02:27;2.13;;;1.30;;
41643;SDS011;44236;48.098;11.582;2023-04-06T03:04:53;1.88;;;1.10;;
41643;SDS011;44236;48.098;11.582;2023-04-06T03:07:18;2.30;;;1.15;;
41643;SDS011;44236;48.098;11.582;2023-04-06T03:09:44;2.15;;;1.30;;
41643;SDS011;44236;48.098;11.582;2023-04-06T03:12:10;2.60;;;1.55;;
41643;SDS011;44236;48.098;11.582;2023-04-06T03:14:35;1.90;;;1.02;;
41643;SDS011;44236;48.098;11.582;2023-04-06T03:17:01;4.57;;;1.52;;
41643;SDS011;44236;48.098;11.582;2023-04-06T03:19:27;2.45;;;1.50;;
41643;SDS011;44236;48.098;11.582;2023-04-06T03:21:52;2.30;;;1.30;;
41643;SDS011;44236;48.098;11.582;2023-04-06T03:24:18;2.15;;;1.20;;
41643;SDS011;44236;48.098;11.582;2023-04-06T03:26:44;3.25;;;1.20;;
41643;SDS011;44236;48.098;11.582;2023-04-06T03:29:09;2.65;;;1.30;;
41643;SDS011;44236;48.098;11.582;2023-04-06T03:31:35;2.60;;;1.30;;
41643;SDS011;44236;48.098;11.582;2023-04-06T03:34:01;2.42;;;1.27;;
41643;SDS011;44236;48.098;11.582;2023-04-06T03:36:26;2.88;;;1.40;;
41643;SDS011;44236;48.098;11.582;2023-04-06T03:38:52;2.53;;;1.38;;
41643;SDS011;44236;48.098;11.582;2023-04-06T03:41:18;3.38;;;1.40;;
41643;SDS011;44236;48.098;11.582;2023-04-06T03:43:44;2.63;;;1.63;;
41643;SDS011;44236;48.098;11.582;2023-04-06T03:46:10;4.80;;;1.85;;
41643;SDS011;44236;48.098;11.582;2023-04-06T03:48:36;1.67;;;1.23;;
41643;SDS011;44236;48.098;11.582;2023-04-06T03:51:01;3.15;;;1.15;;
41643;SDS011;44236;48.098;11.582;2023-04-06T03:53:27;2.75;;;1.50;;
41643;SDS011;44236;48.098;11.582;2023-04-06T03:55:53;1.90;;;1.40;;
41643;SDS011;44236;48.098;11.582;2023-04-06T03:58:18;3.58;;;1.30;;
41643;SDS011;44236;48.098;11.582;2023-04-06T04:00:47;4.00;;;1.30;;
41643;SDS011;44236;48.098;11.582;2023-04-06T04:03:12;2.50;;;1.52;;
41643;SDS011;44236;48.098;11.582;2023-04-06T04:05:38;2.28;;;1.10;;
41643;SDS011;44236;48.098;11.582;2023-04-06T04:08:04;2.40;;;1.38;;
41643;SDS011;44236;48.098;11.582;2023-04-06T04:10:29;3.22;;;1.00;;
41643;SDS011;44236;48.098;11.582;2023-04-06T04:12:55;4.85;;;1.10;;
41643;SDS011;44236;48.098;11.582;2023-04-06T04:15:20;2.40;;;1.20;;
41643;SDS011;44236;48.098;11.582;2023-04-06T04:17:46;2.65;;;1.40;;
41643;SDS011;44236;48.098;11.582;2023-04-06T04:20:14;4.03;;;1.30;;
41643;SDS011;44236;48.098;11.582;2023-04-06T04:22:41;1.92;;;0.93;;
41643;SDS011;44236;48.098;11.582;2023-04-06T04:25:07;2.90;;;1.40;;
41643;SDS011;44236;48.098;11.582;2023-04-06T04:27:33;3.20;;;1.30;;
41643;SDS011;44236;48.098;11.582;2023-04-06T04:29:58;3.42;;;1.48;;
41643;SDS011;44236;48.098;11.582;2023-04-06T04:32:24;2.22;;;1.30;;
41643;SDS011;44236;48.098;11.582;2023-04-06T04:34:52;3.35;;;1.13;;
41643;SDS011;44236;48.098;11.582;2023-04-06T04:37:18;2.85;;;1.33;;
41643;SDS011;44236;48.098;11.582;2023-04-06T04:39:44;1.88;;;1.20;;
41643;SDS011;44236;48.098;11.582;2023-04-06T04:42:10;2.33;;;1.45;;
41643;SDS011;44236;48.098;11.582;2023-04-06T04:44:36;1.98;;;1.02;;
41643;SDS011;44236;48.098;11.582;2023-04-06T04:47:01;2.33;;;1.30;;
41643;SDS011;44236;48.098;11.582;2023-04-06T04:49:27;4.28;;;1.23;;
41643;SDS011;44236;48.098;11.582;2023-04-06T04:51:53;1.55;;;1.20;;
41643;SDS011;44236;48.098;11.582;2023-04-06T04:54:18;2.30;;;1.40;;
41643;SDS011;44236;48.098;11.582;2023-04-06T04:56:44;5.10;;;1.40;;
41643;SDS011;44236;48.098;11.582;2023-04-06T04:59:10;2.55;;;1.60;;
41643;SDS011;44236;48.098;11.582;2023-04-06T05:01:36;2.92;;;1.20;;
41643;SDS011;44236;48.098;11.582;2023-04-06T05:04:01;2.88;;;1.50;;
41643;SDS011;44236;48.098;11.582;2023-04-06T05:06:27;2.90;;;1.30;;
41643;SDS011;44236;48.098;11.582;2023-04-06T05:08:53;6.93;;;1.35;;
41643;SDS011;44236;48.098;11.582;2023-04-06T05:11:18;3.15;;;1.17;;
41643;SDS011;44236;48.098;11.582;2023-04-06T05:13:44;4.13;;;1.42;;
41643;SDS011;44236;48.098;11.582;2023-04-06T05:16:10;7.00;;;1.30;;
41643;SDS011;44236;48.098;11.582;2023-04-06T05:18:36;3.67;;;1.80;;
41643;SDS011;44236;48.098;11.582;2023-04-06T05:21:02;5.30;;;1.58;;
41643;SDS011;44236;48.098;11.582;2023-04-06T05:23:27;7.72;;;2.00;;
41643;SDS011;44236;48.098;11.582;2023-04-06T05:25:53;3.85;;;1.60;;
41643;SDS011;44236;48.098;11.582;2023-04-06T05:28:19;4.43;;;1.35;;
41643;SDS011;44236;48.098;11.582;2023-04-06T05:30:45;3.65;;;1.70;;
41643;SDS011;44236;48.098;11.582;2023-04-06T05:33:11;7.03;;;1.95;;
41643;SDS011;44236;48.098;11.582;2023-04-06T05:35:37;4.50;;;1.60;;
41643;SDS011;44236;48.098;11.582;2023-04-06T05:38:02;2.55;;;1.48;;
41643;SDS011;44236;48.098;11.582;2023-04-06T05:40:28;5.13;;;1.77;;
41643;SDS011;44236;48.098;11.582;2023-04-06T05:42:54;5.18;;;1.92;;
41643;SDS011;44236;48.098;11.582;2023-04-06T05:45:20;3.47;;;1.55;;
41643;SDS011;44236;48.098;11.582;2023-04-06T05:47:46;4.50;;;1.42;;
41643;SDS011;44236;48.098;11.582;2023-04-06T05:50:12;3.45;;;1.40;;
41643;SDS011;44236;48.098;11.582;2023-04-06T05:52:40;3.20;;;1.30;;
41643;SDS011;44236;48.098;11.582;2023-04-06T05:55:11;3.35;;;1.50;;
41643;SDS011;44236;48.098;11.582;2023-04-06T05:57:37;7.00;;;1.80;;
41643;SDS011;44236;48.098;11.582;2023-04-06T06:00:03;6.95;;;2.60;;
41643;SDS011;44236;48.098;11.582;2023-04-06T06:02:31;5.25;;;2.08;;
41643;SDS011;44236;48.098;11.582;2023-04-06T06:04:57;8.15;;;1.95;;
41643;SDS011;44236;48.098;11.582;2023-04-06T06:07:23;6.25;;;1.83;;
41643;SDS011;44236;48.098;11.582;2023-04-06T06:09:49;23.30;;;2.33;;
41643;SDS011;44236;48.098;11.582;2023-04-06T06:12:15;14.13;;;2.67;;
41643;SDS011;44236;48.098;11.582;2023-04-06T06:14:40;18.17;;;2.50;;
41643;SDS011;44236;48.098;11.582;2023-04-06T06:17:06;16.95;;;3.50;;
41643;SDS011;44236;48.098;11.582;2023-04-06T06:19:32;10.57;;;2.85;;
41643;SDS011;44236;48.098;11.582;2023-04-06T06:21:57;12.40;;;3.25;;
41643;SDS011;44236;48.098;11.582;2023-04-06T06:24:24;9.60;;;2.78;;
41643;SDS011;44236;48.098;11.582;2023-04-06T06:26:50;8.70;;;2.17;;
41643;SDS011;44236;48.098;11.582;2023-04-06T06:29:16;9.98;;;2.78;;
41643;SDS011;44236;48.098;11.582;2023-04-06T06:31:41;8.30;;;2.10;;
41643;SDS011;44236;48.098;11.582;2023-04-06T06:34:07;7.75;;;2.50;;
41643;SDS011;44236;48.098;11.582;2023-04-06T06:36:33;6.95;;;2.25;;
41643;SDS011;44236;48.098;11.582;2023-04-06T06:39:00;5.90;;;2.13;;
41643;SDS011;44236;48.098;11.582;2023-04-06T06:41:25;6.65;;;2.58;;
41643;SDS011;44236;48.098;11.582;2023-04-06T06:43:51;8.02;;;2.15;;
41643;SDS011;44236;48.098;11.582;2023-04-06T06:46:17;6.40;;;2.20;;
41643;SDS011;44236;48.098;11.582;2023-04-06T06:48:42;9.38;;;2.13;;
41643;SDS011;44236;48.098;11.582;2023-04-06T06:51:08;11.88;;;2.50;;
41643;SDS011;44236;48.098;11.582;2023-04-06T06:53:34;9.65;;;2.53;;
41643;SDS011;44236;48.098;11.582;2023-04-06T06:56:00;6.90;;;2.42;;
41643;SDS011;44236;48.098;11.582;2023-04-06T06:58:26;8.88;;;2.60;;
41643;SDS011;44236;48.098;11.582;2023-04-06T07:00:55;7.13;;;2.35;;
41643;SDS011;44236;48.098;11.582;2023-04-06T07:05:50;6.82;;;2.08;;
41643;SDS011;44236;48.098;11.582;2023-04-06T07:08:22;8.60;;;3.17;;
41643;SDS011;44236;48.098;11.582;2023-04-06T07:10:49;4.63;;;1.75;;
41643;SDS011;44236;48.098;11.582;2023-04-06T07:13:17;9.23;;;2.65;;
41643;SDS011;44236;48.098;11.582;2023-04-06T07:15:47;7.47;;;1.90;;
41643;SDS011;44236;48.098;11.582;2023-04-06T07:18:13;6.15;;;2.33;;
41643;SDS011;44236;48.098;11.582;2023-04-06T07:20:39;5.88;;;2.60;;
41643;SDS011;44236;48.098;11.582;2023-04-06T07:23:06;6.00;;;2.47;;
41643;SDS011;44236;48.098;11.582;2023-04-06T07:25:32;4.65;;;1.90;;
41643;SDS011;44236;48.098;11.582;2023-04-06T07:27:58;5.50;;;2.10;;
41643;SDS011;44236;48.098;11.582;2023-04-06T07:30:23;6.88;;;2.00;;
41643;SDS011;44236;48.098;11.582;2023-04-06T07:32:51;7.55;;;2.63;;
41643;SDS011;44236;48.098;11.582;2023-04-06T07:35:17;6.05;;;1.95;;
41643;SDS011;44236;48.098;11.582;2023-04-06T07:37:43;5.80;;;1.90;;
41643;SDS011;44236;48.098;11.582;2023-04-06T07:40:08;5.35;;;1.67;;
41643;SDS011;44236;48.098;11.582;2023-04-06T07:42:34;5.72;;;2.30;;
41643;SDS011;44236;48.098;11.582;2023-04-06T07:45:00;5.38;;;2.08;;
41643;SDS011;44236;48.098;11.582;2023-04-06T07:47:26;5.60;;;2.90;;
41643;SDS011;44236;48.098;11.582;2023-04-06T07:49:51;5.60;;;2.22;;
41643;SDS011;44236;48.098;11.582;2023-04-06T07:52:19;4.43;;;2.08;;
41643;SDS011;44236;48.098;11.582;2023-04-06T07:54:45;5.03;;;2.25;;
41643;SDS011;44236;48.098;11.582;2023-04-06T07:57:10;6.57;;;2.03;;
41643;SDS011;44236;48.098;11.582;2023-04-06T07:59:36;4.68;;;1.98;;
41643;SDS011;44236;48.098;11.582;2023-04-06T08:02:05;6.20;;;2.53;;
41643;SDS011;44236;48.098;11.582;2023-04-06T08:04:31;4.63;;;2.00;;
41643;SDS011;44236;48.098;11.582;2023-04-06T08:06:56;5.75;;;1.70;;
41643;SDS011;44236;48.098;11.582;2023-04-06T08:09:22;7.70;;;1.98;;
41643;SDS011;44236;48.098;11.582;2023-04-06T08:11:48;5.78;;;2.60;;
41643;SDS011;44236;48.098;11.582;2023-04-06T08:14:14;5.45;;;2.03;;
41643;SDS011;44236;48.098;11.582;2023-04-06T08:16:41;4.40;;;1.85;;
41643;SDS011;44236;48.098;11.582;2023-04-06T08:19:06;4.75;;;1.85;;
41643;SDS011;44236;48.098;11.582;2023-04-06T08:21:34;5.05;;;1.98;;
41643;SDS011;44236;48.098;11.582;2023-04-06T08:24:00;4.97;;;1.88;;
41643;SDS011;44236;48.098;11.582;2023-04-06T08:26:26;4.07;;;1.98;;
41643;SDS011;44236;48.098;11.582;2023-04-06T08:28:53;5.13;;;2.10;;
41643;SDS011;44236;48.098;11.582;2023-04-06T08:31:19;4.28;;;2.40;;
41643;SDS011;44236;48.098;11.582;2023-04-06T08:33:44;4.18;;;2.00;;
41643;SDS011;44236;48.098;11.582;2023-04-06T08:36:11;3.00;;;1.63;;
41643;SDS011;44236;48.098;11.582;2023-04-06T08:38:38;3.70;;;1.40;;
41643;SDS011;44236;48.098;11.582;2023-04-06T08:41:11;4.55;;;1.70;;
41643;SDS011;44236;48.098;11.582;2023-04-06T08:43:47;3.63;;;1.88;;
41643;SDS011;44236;48.098;11.582;2023-04-06T08:46:15;4.57;;;1.85;;
41643;SDS011;44236;48.098;11.582;2023-04-06T08:48:43;5.20;;;2.40;;
41643;SDS011;44236;48.098;11.582;2023-04-06T08:51:11;5.18;;;1.65;;
41643;SDS011;44236;48.098;11.582;2023-04-06T08:53:37;3.50;;;1.55;;
41643;SDS011;44236;48.098;11.582;2023-04-06T08:56:03;3.90;;;1.70;;
41643;SDS011;44236;48.098;11.582;2023-04-06T08:58:34;3.55;;;1.55;;
41643;SDS011;44236;48.098;11.582;2023-04-06T09:01:03;4.80;;;2.70;;
41643;SDS011;44236;48.098;11.582;2023-04-06T09:03:33;5.30;;;3.05;;
41643;SDS011;44236;48.098;11.582;2023-04-06T09:06:02;7.30;;;4.55;;
41643;SDS011;44236;48.098;11.582;2023-04-06T09:08:29;6.57;;;4.35;;
41643;SDS011;44236;48.098;11.582;2023-04-06T09:10:55;10.52;;;4.93;;
41643;SDS011;44236;48.098;11.582;2023-04-06T09:13:21;7.63;;;4.80;;
41643;SDS011;44236;48.098;11.582;2023-04-06T09:15:46;9.15;;;5.85;;
41643;SDS011;44236;48.098;11.582;2023-04-06T09:18:33;9.55;;;5.22;;
41643;SDS011;44236;48.098;11.582;2023-04-06T09:23:29;9.55;;;5.03;;
41643;SDS011;44236;48.098;11.582;2023-04-06T09:26:08;10.18;;;5.20;;
41643;SDS011;44236;48.098;11.582;2023-04-06T09:31:07;6.30;;;3.42;;
41643;SDS011;44236;48.098;11.582;2023-04-06T09:33:36;7.03;;;2.80;;
41643;SDS011;44236;48.098;11.582;2023-04-06T09:36:04;5.10;;;2.88;;
41643;SDS011;44236;48.098;11.582;2023-04-06T09:38:30;6.10;;;2.50;;
41643;SDS011;44236;48.098;11.582;2023-04-06T09:40:55;4.38;;;2.30;;
41643;SDS011;44236;48.098;11.582;2023-04-06T09:43:25;3.20;;;1.95;;
41643;SDS011;44236;48.098;11.582;2023-04-06T09:45:51;6.13;;;1.90;;
41643;SDS011;44236;48.098;11.582;2023-04-06T09:48:19;4.82;;;1.90;;
41643;SDS011;44236;48.098;11.582;2023-04-06T09:50:48;4.80;;;2.35;;
41643;SDS011;44236;48.098;11.582;2023-04-06T09:53:16;5.47;;;2.10;;
41643;SDS011;44236;48.098;11.582;2023-04-06T09:55:45;5.93;;;2.17;;
41643;SDS011;44236;48.098;11.582;2023-04-06T09:58:15;9.65;;;3.80;;
41643;SDS011;44236;48.098;11.582;2023-04-06T10:00:57;11.50;;;3.00;;
41643;SDS011;44236;48.098;11.582;2023-04-06T10:06:14;8.60;;;3.10;;
41643;SDS011;44236;48.098;11.582;2023-04-06T10:08:42;8.85;;;2.60;;
41643;SDS011;44236;48.098;11.582;2023-04-06T10:11:11;9.50;;;3.00;;
41643;SDS011;44236;48.098;11.582;2023-04-06T10:13:37;8.75;;;3.17;;
41643;SDS011;44236;48.098;11.582;2023-04-06T10:16:06;11.93;;;3.42;;
41643;SDS011;44236;48.098;11.582;2023-04-06T10:18:32;8.07;;;2.58;;
41643;SDS011;44236;48.098;11.582;2023-04-06T10:23:33;12.38;;;3.08;;
41643;SDS011;44236;48.098;11.582;2023-04-06T10:26:12;8.27;;;2.40;;
41643;SDS011;44236;48.098;11.582;2023-04-06T10:28:42;9.55;;;2.97;;
41643;SDS011;44236;48.098;11.582;2023-04-06T10:31:09;10.68;;;3.15;;
41643;SDS011;44236;48.098;11.582;2023-04-06T10:33:35;11.23;;;3.00;;
41643;SDS011;44236;48.098;11.582;2023-04-06T10:36:10;13.02;;;2.75;;
41643;SDS011;44236;48.098;11.582;2023-04-06T10:38:41;9.10;;;3.03;;
41643;SDS011;44236;48.098;11.582;2023-04-06T10:41:07;8.82;;;2.63;;
41643;SDS011;44236;48.098;11.582;2023-04-06T10:43:35;7.00;;;2.40;;
41643;SDS011;44236;48.098;11.582;2023-04-06T10:46:02;7.55;;;3.20;;
41643;SDS011;44236;48.098;11.582;2023-04-06T10:48:43;6.68;;;2.25;;
41643;SDS011;44236;48.098;11.582;2023-04-06T10:51:12;7.43;;;2.70;;
41643;SDS011;44236;48.098;11.582;2023-04-06T10:53:39;7.45;;;2.50;;
41643;SDS011;44236;48.098;11.582;2023-04-06T10:56:11;7.82;;;2.80;;
41643;SDS011;44236;48.098;11.582;2023-04-06T10:58:46;6.40;;;2.35;;
41643;SDS011;44236;48.098;11.582;2023-04-06T11:01:14;5.22;;;2.17;;
41643;SDS011;44236;48.098;11.582;2023-04-06T11:03:42;7.32;;;2.38;;
41643;SDS011;44236;48.098;11.582;2023-04-06T11:06:09;10.63;;;2.35;;
41643;SDS011;44236;48.098;11.582;2023-04-06T11:08:34;6.03;;;2.30;;
41643;SDS011;44236;48.098;11.582;2023-04-06T11:11:05;7.53;;;2.50;;
41643;SDS011;44236;48.098;11.582;2023-04-06T11:16:18;4.65;;;1.55;;
41643;SDS011;44236;48.098;11.582;2023-04-06T11:18:48;3.17;;;1.67;;
41643;SDS011;44236;48.098;11.582;2023-04-06T11:21:17;4.18;;;1.90;;
41643;SDS011;44236;48.098;11.582;2023-04-06T11:23:44;4.78;;;1.60;;
41643;SDS011;44236;48.098;11.582;2023-04-06T11:26:10;5.72;;;1.77;;
41643;SDS011;44236;48.098;11.582;2023-04-06T11:28:37;6.18;;;1.92;;
41643;SDS011;44236;48.098;11.582;2023-04-06T11:31:04;3.78;;;1.95;;
41643;SDS011;44236;48.098;11.582;2023-04-06T11:33:35;4.10;;;1.80;;
41643;SDS011;44236;48.098;11.582;2023-04-06T11:36:02;3.75;;;1.85;;
41643;SDS011;44236;48.098;11.582;2023-04-06T11:38:28;4.30;;;1.85;;
41643;SDS011;44236;48.098;11.582;2023-04-06T11:40:54;6.22;;;1.60;;
41643;SDS011;44236;48.098;11.582;2023-04-06T11:43:29;5.95;;;1.95;;
41643;SDS011;44236;48.098;11.582;2023-04-06T11:46:04;3.85;;;1.85;;
41643;SDS011;44236;48.098;11.582;2023-04-06T11:48:31;5.47;;;1.80;;
41643;SDS011;44236;48.098;11.582;2023-04-06T11:50:57;5.05;;;1.58;;
41643;SDS011;44236;48.098;11.582;2023-04-06T11:53:26;2.90;;;1.20;;
41643;SDS011;44236;48.098;11.582;2023-04-06T11:55:53;6.05;;;1.60;;
41643;SDS011;44236;48.098;11.582;2023-04-06T11:58:19;3.40;;;1.58;;
41643;SDS011;44236;48.098;11.582;2023-04-06T12:00:44;4.13;;;1.50;;
41643;SDS011;44236;48.098;11.582;2023-04-06T12:03:13;3.35;;;1.40;;
41643;SDS011;44236;48.098;11.582;2023-04-06T12:05:39;4.45;;;1.95;;
41643;SDS011;44236;48.098;11.582;2023-04-06T12:08:05;4.70;;;1.90;;
41643;SDS011;44236;48.098;11.582;2023-04-06T12:10:31;5.03;;;1.60;;
41643;SDS011;44236;48.098;11.582;2023-04-06T12:12:56;5.93;;;1.77;;
41643;SDS011;44236;48.098;11.582;2023-04-06T12:15:22;4.13;;;1.63;;
41643;SDS011;44236;48.098;11.582;2023-04-06T12:17:48;4.10;;;1.45;;
41643;SDS011;44236;48.098;11.582;2023-04-06T12:20:14;7.45;;;2.58;;
41643;SDS011;44236;48.098;11.582;2023-04-06T12:22:40;7.68;;;1.90;;
41643;SDS011;44236;48.098;11.582;2023-04-06T12:25:06;7.13;;;1.70;;
41643;SDS011;44236;48.098;11.582;2023-04-06T12:27:32;3.35;;;1.73;;
41643;SDS011;44236;48.098;11.582;2023-04-06T12:29:57;3.83;;;2.10;;
41643;SDS011;44236;48.098;11.582;2023-04-06T12:32:26;4.68;;;1.38;;
41643;SDS011;44236;48.098;11.582;2023-04-06T12:34:59;4.05;;;1.92;;
41643;SDS011;44236;48.098;11.582;2023-04-06T12:37:24;3.03;;;1.58;;
41643;SDS011;44236;48.098;11.582;2023-04-06T12:39:52;3.55;;;1.70;;
41643;SDS011;44236;48.098;11.582;2023-04-06T12:42:17;2.78;;;1.35;;
41643;SDS011;44236;48.098;11.582;2023-04-06T12:44:43;15.13;;;1.88;;
41643;SDS011;44236;48.098;11.582;2023-04-06T12:47:09;4.03;;;1.50;;
41643;SDS011;44236;48.098;11.582;2023-04-06T12:49:35;3.45;;;1.25;;
41643;SDS011;44236;48.098;11.582;2023-04-06T12:52:01;5.20;;;1.55;;
41643;SDS011;44236;48.098;11.582;2023-04-06T12:54:27;6.43;;;1.30;;
41643;SDS011;44236;48.098;11.582;2023-04-06T12:56:53;4.18;;;1.20;;
41643;SDS011;44236;48.098;11.582;2023-04-06T12:59:20;3.78;;;2.13;;
41643;SDS011;44236;48.098;11.582;2023-04-06T13:01:46;3.17;;;1.60;;
41643;SDS011;44236;48.098;11.582;2023-04-06T13:04:12;2.17;;;1.40;;
41643;SDS011;44236;48.098;11.582;2023-04-06T13:06:38;4.50;;;1.20;;
41643;SDS011;44236;48.098;11.582;2023-04-06T13:09:03;3.55;;;1.38;;
41643;SDS011;44236;48.098;11.582;2023-04-06T13:11:30;3.63;;;1.60;;
41643;SDS011;44236;48.098;11.582;2023-04-06T13:13:56;3.63;;;1.20;;
41643;SDS011;44236;48.098;11.582;2023-04-06T13:16:22;3.88;;;1.27;;
41643;SDS011;44236;48.098;11.582;2023-04-06T13:18:47;3.75;;;0.80;;
41643;SDS011;44236;48.098;11.582;2023-04-06T13:21:14;2.85;;;1.33;;
41643;SDS011;44236;48.098;11.582;2023-04-06T13:23:41;4.10;;;1.40;;
41643;SDS011;44236;48.098;11.582;2023-04-06T13:26:07;3.17;;;1.67;;
41643;SDS011;44236;48.098;11.582;2023-04-06T13:28:35;2.30;;;1.20;;
41643;SDS011;44236;48.098;11.582;2023-04-06T13:31:04;3.33;;;1.52;;
41643;SDS011;44236;48.098;11.582;2023-04-06T13:33:30;2.05;;;1.20;;
41643;SDS011;44236;48.098;11.582;2023-04-06T13:35:58;2.45;;;1.20;;
41643;SDS011;44236;48.098;11.582;2023-04-06T13:38:23;4.72;;;1.42;;
41643;SDS011;44236;48.098;11.582;2023-04-06T13:40:49;3.47;;;1.85;;
41643;SDS011;44236;48.098;11.582;2023-04-06T13:43:15;5.63;;;3.22;;
41643;SDS011;44236;48.098;11.582;2023-04-06T13:45:43;7.05;;;3.75;;
41643;SDS011;44236;48.098;11.582;2023-04-06T13:48:15;6.90;;;4.32;;
41643;SDS011;44236;48.098;11.582;2023-04-06T13:50:40;6.63;;;4.53;;
41643;SDS011;44236;48.098;11.582;2023-04-06T13:53:06;6.95;;;4.00;;
41643;SDS011;44236;48.098;11.582;2023-04-06T13:55:31;4.90;;;2.80;;
41643;SDS011;44236;48.098;11.582;2023-04-06T13:57:57;8.38;;;2.58;;
41643;SDS011;44236;48.098;11.582;2023-04-06T14:00:23;2.92;;;1.52;;
41643;SDS011;44236;48.098;11.582;2023-04-06T14:02:48;4.43;;;2.13;;
41643;SDS011;44236;48.098;11.582;2023-04-06T14:05:14;6.63;;;1.70;;
41643;SDS011;44236;48.098;11.582;2023-04-06T14:07:40;3.83;;;1.88;;
41643;SDS011;44236;48.098;11.582;2023-04-06T14:10:06;4.47;;;1.70;;
41643;SDS011;44236;48.098;11.582;2023-04-06T14:12:38;8.50;;;1.73;;
41643;SDS011;44236;48.098;11.582;2023-04-06T14:15:09;7.38;;;2.20;;
41643;SDS011;44236;48.098;11.582;2023-04-06T14:17:36;3.72;;;1.90;;
41643;SDS011;44236;48.098;11.582;2023-04-06T14:20:02;18.10;;;2.65;;
41643;SDS011;44236;48.098;11.582;2023-04-06T14:22:28;5.90;;;2.03;;
41643;SDS011;44236;48.098;11.582;2023-04-06T14:24:54;8.23;;;2.10;;
41643;SDS011;44236;48.098;11.582;2023-04-06T14:27:20;14.13;;;2.38;;
41643;SDS011;44236;48.098;11.582;2023-04-06T14:29:46;6.55;;;2.13;;
41643;SDS011;44236;48.098;11.582;2023-04-06T14:32:12;10.45;;;2.03;;
41643;SDS011;44236;48.098;11.582;2023-04-06T14:34:38;6.70;;;1.80;;
41643;SDS011;44236;48.098;11.582;2023-04-06T14:37:03;8.43;;;1.58;;
41643;SDS011;44236;48.098;11.582;2023-04-06T14:39:29;7.88;;;2.08;;
41643;SDS011;44236;48.098;11.582;2023-04-06T14:41:55;5.20;;;1.85;;
41643;SDS011;44236;48.098;11.582;2023-04-06T14:44:20;5.07;;;1.38;;
41643;SDS011;44236;48.098;11.582;2023-04-06T14:46:46;12.00;;;2.22;;